createdAt,value
2023-02-24T00:00:47.463Z,29.25
2023-02-24T00:03:49.607Z,31.85
2023-02-24T00:06:51.729Z,31.10
2023-02-24T00:09:53.757Z,32.28
2023-02-24T00:12:55.781Z,31.63
2023-02-24T00:16:02.055Z,31.77
2023-02-24T00:19:05.723Z,35.50
2023-02-24T00:22:09.224Z,38.55
2023-02-24T00:25:11.990Z,34.65
2023-02-24T00:28:14.085Z,40.97
2023-02-24T00:31:20.036Z,37.45
2023-02-24T00:34:23.089Z,37.88
2023-02-24T00:37:25.284Z,39.83
2023-02-24T00:40:27.282Z,39.47
2023-02-24T00:43:29.280Z,40.20
2023-02-24T00:46:32.274Z,45.40
2023-02-24T00:49:36.092Z,47.97
2023-02-24T00:52:38.669Z,44.35
2023-02-24T00:55:40.722Z,43.13
2023-02-24T00:58:44.293Z,45.22
2023-02-24T01:01:46.337Z,50.10
2023-02-24T01:04:48.711Z,47.70
2023-02-24T01:07:50.677Z,50.75
2023-02-24T01:11:02.418Z,47.40
2023-02-24T01:14:12.915Z,47.40
2023-02-24T01:17:16.393Z,47.60
2023-02-24T01:20:18.778Z,47.97
2023-02-24T01:23:20.902Z,46.85
2023-02-24T01:26:23.117Z,46.58
2023-02-24T01:29:25.066Z,46.42
2023-02-24T01:32:27.281Z,51.00
2023-02-24T01:35:31.137Z,51.53
2023-02-24T01:38:33.538Z,47.88
2023-02-24T01:41:35.830Z,47.65
2023-02-24T01:44:43.986Z,43.08
2023-02-24T01:47:46.748Z,43.05
2023-02-24T01:50:50.762Z,51.25
2023-02-24T01:53:53.120Z,45.95
2023-02-24T01:56:57.447Z,50.63
2023-02-24T02:00:01.508Z,47.72
2023-02-24T02:03:16.299Z,46.55
2023-02-24T02:06:21.829Z,44.67
2023-02-24T02:09:24.302Z,47.25
2023-02-24T02:12:28.634Z,43.95
2023-02-24T02:15:36.526Z,46.17
2023-02-24T02:19:18.384Z,44.28
2023-02-24T02:23:02.252Z,45.80
2023-02-24T02:26:19.027Z,50.85
2023-02-24T02:29:30.693Z,47.05
2023-02-24T02:32:44.535Z,47.33
2023-02-24T02:36:21.927Z,45.85
2023-02-24T02:39:37.753Z,49.35
2023-02-24T02:42:59.131Z,41.58
2023-02-24T02:46:13.740Z,47.17
2023-02-24T02:49:21.861Z,49.40
2023-02-24T02:52:36.124Z,51.67
2023-02-24T02:55:40.945Z,49.97
2023-02-24T02:58:50.075Z,48.55
2023-02-24T03:01:57.080Z,48.03
2023-02-24T03:05:02.352Z,46.63
2023-02-24T03:08:08.951Z,47.65
2023-02-24T03:11:15.454Z,49.22
2023-02-24T03:14:23.028Z,49.20
2023-02-24T03:17:31.089Z,50.92
2023-02-24T03:20:41.404Z,47.22
2023-02-24T03:23:47.753Z,47.80
2023-02-24T03:26:57.163Z,46.78
2023-02-24T03:30:10.248Z,50.90
2023-02-24T03:33:28.191Z,51.58
2023-02-24T03:36:32.797Z,47.13
2023-02-24T03:39:35.559Z,44.63
2023-02-24T03:43:00.903Z,49.67
2023-02-24T03:49:10.849Z,50.35
2023-02-24T03:52:49.811Z,51.08
2023-02-24T03:56:13.156Z,47.05
2023-02-24T03:59:56.068Z,45.85
2023-02-24T04:03:03.334Z,45.20
2023-02-24T04:06:21.787Z,42.92
2023-02-24T04:09:27.005Z,45.58
2023-02-24T04:13:09.276Z,46.22
2023-02-24T04:16:21.362Z,46.17
2023-02-24T04:19:25.668Z,46.83
2023-02-24T04:22:29.161Z,44.47
2023-02-24T04:25:31.817Z,41.05
2023-02-24T04:31:39.290Z,43.13
2023-02-24T04:34:42.463Z,38.78
2023-02-24T04:40:46.937Z,40.97
2023-02-24T04:43:50.658Z,44.75
2023-02-24T04:46:52.721Z,40.60
2023-02-24T04:49:54.849Z,40.30
2023-02-24T04:52:59.824Z,43.25
2023-02-24T04:56:06.290Z,39.10
2023-02-24T04:59:08.730Z,42.03
2023-02-24T05:02:10.780Z,41.05
2023-02-24T05:05:12.760Z,41.60
2023-02-24T05:08:14.681Z,36.60
2023-02-24T05:11:17.465Z,46.50
2023-02-24T05:14:20.740Z,35.78
2023-02-24T05:17:22.678Z,42.47
2023-02-24T05:20:28.335Z,39.90
2023-02-24T05:23:36.956Z,40.25
2023-02-24T05:26:40.018Z,37.25
2023-02-24T05:29:42.021Z,38.55
2023-02-24T05:32:44.165Z,40.78
2023-02-24T05:35:46.177Z,40.97
2023-02-24T05:38:49.731Z,35.58
2023-02-24T05:41:51.909Z,42.47
2023-02-24T05:44:54.701Z,40.05
2023-02-24T05:47:56.924Z,40.55
2023-02-24T05:50:59.130Z,39.15
2023-02-24T05:54:09.797Z,37.13
2023-02-24T05:57:13.954Z,36.50
2023-02-24T06:00:16.169Z,38.90
2023-02-24T06:03:18.170Z,33.35
2023-02-24T06:06:20.169Z,35.55
2023-02-24T06:09:22.321Z,39.05
2023-02-24T06:12:33.825Z,36.30
2023-02-24T06:15:35.848Z,39.90
2023-02-24T06:18:37.747Z,36.03
2023-02-24T06:21:42.055Z,38.40
2023-02-24T06:24:44.002Z,43.25
2023-02-24T06:27:45.918Z,40.53
2023-02-24T06:30:47.749Z,37.83
2023-02-24T06:33:50.652Z,40.13
2023-02-24T06:39:54.506Z,41.78
2023-02-24T06:42:56.398Z,36.80
2023-02-24T06:45:59.033Z,39.90
2023-02-24T06:52:03.112Z,42.63
2023-02-24T06:55:05.365Z,41.20
2023-02-24T06:58:07.201Z,36.40
2023-02-24T07:01:10.931Z,42.72
2023-02-24T07:04:12.973Z,34.53
2023-02-24T07:07:16.676Z,40.55
2023-02-24T07:10:18.720Z,39.42
2023-02-24T07:13:20.640Z,35.70
2023-02-24T07:16:23.477Z,39.08
2023-02-24T07:19:29.975Z,43.00
2023-02-24T07:22:31.840Z,36.88
2023-02-24T07:25:33.931Z,37.95
2023-02-24T07:28:36.567Z,38.92
2023-02-24T07:31:39.576Z,40.60
2023-02-24T07:34:41.697Z,41.05
2023-02-24T07:37:43.561Z,37.33
2023-02-24T07:40:45.438Z,40.00
2023-02-24T07:43:47.235Z,37.20
2023-02-24T07:46:50.135Z,36.72
2023-02-24T07:49:51.957Z,43.03
2023-02-24T07:52:54.156Z,37.78
2023-02-24T07:55:56.005Z,38.00
2023-02-24T07:59:00.579Z,39.67
2023-02-24T08:02:02.415Z,35.47
2023-02-24T08:05:04.414Z,35.78
2023-02-24T08:08:06.316Z,38.60
2023-02-24T08:11:08.139Z,37.28
2023-02-24T08:14:10.570Z,34.17
2023-02-24T08:17:13.077Z,39.67
2023-02-24T08:20:15.794Z,41.33
2023-02-24T08:23:18.264Z,38.67
2023-02-24T08:26:20.294Z,37.97
2023-02-24T08:29:24.718Z,34.65
2023-02-24T08:32:35.288Z,33.67
2023-02-24T08:35:39.719Z,36.55
2023-02-24T08:38:41.580Z,34.33
2023-02-24T08:41:43.585Z,36.10
2023-02-24T08:44:45.549Z,32.38
2023-02-24T08:47:47.384Z,32.72
2023-02-24T08:50:49.317Z,41.05
2023-02-24T08:53:53.289Z,35.20
2023-02-24T08:56:56.284Z,41.33
2023-02-24T08:59:58.713Z,35.20
2023-02-24T09:03:00.622Z,40.25
2023-02-24T09:06:06.182Z,39.80
2023-02-24T09:09:08.626Z,40.33
2023-02-24T09:12:11.902Z,34.67
2023-02-24T09:15:15.710Z,38.97
2023-02-24T09:18:17.960Z,38.17
2023-02-24T09:21:22.458Z,36.65
2023-02-24T09:24:24.432Z,36.50
2023-02-24T09:27:26.333Z,35.53
2023-02-24T09:30:30.464Z,35.08
2023-02-24T09:33:37.380Z,38.25
2023-02-24T09:36:40.703Z,37.13
2023-02-24T09:39:44.343Z,31.67
2023-02-24T09:42:46.594Z,34.42
2023-02-24T09:45:59.399Z,32.42
2023-02-24T09:49:11.829Z,34.85
2023-02-24T09:52:16.306Z,33.88
2023-02-24T09:55:18.240Z,35.17
2023-02-24T09:58:44.698Z,34.22
2023-02-24T10:01:57.232Z,32.85
2023-02-24T10:05:25.323Z,30.27
2023-02-24T10:08:36.219Z,32.42
2023-02-24T10:11:48.452Z,31.85
2023-02-24T10:15:04.754Z,31.50
2023-02-24T10:18:42.234Z,31.30
2023-02-24T10:22:16.555Z,32.47
2023-02-24T10:25:45.069Z,28.10
2023-02-24T10:28:56.189Z,27.70
2023-02-24T10:32:36.737Z,31.35
2023-02-24T10:35:38.724Z,31.67
2023-02-24T10:38:40.820Z,26.77
2023-02-24T10:41:50.473Z,29.98
2023-02-24T10:45:09.815Z,31.40
2023-02-24T10:48:32.398Z,29.25
2023-02-24T10:51:47.830Z,34.40
2023-02-24T10:54:49.672Z,30.92
2023-02-24T10:57:58.981Z,33.72
2023-02-24T11:01:12.055Z,31.27
2023-02-24T11:04:17.069Z,30.23
2023-02-24T11:07:18.927Z,31.63
2023-02-24T11:10:23.577Z,28.92
2023-02-24T11:13:26.747Z,28.23
2023-02-24T11:16:28.593Z,27.02
2023-02-24T11:19:41.614Z,24.10
2023-02-24T11:22:45.505Z,22.08
2023-02-24T11:25:51.826Z,18.75
2023-02-24T11:29:02.079Z,19.80
2023-02-24T11:32:17.824Z,20.55
2023-02-24T11:35:36.915Z,20.63
2023-02-24T11:39:32.372Z,22.90
2023-02-24T11:42:50.602Z,22.77
2023-02-24T11:46:01.663Z,23.73
2023-02-24T11:49:11.890Z,22.05
2023-02-24T12:03:43.601Z,28.65
2023-02-24T12:07:13.723Z,28.45
2023-02-24T12:10:24.713Z,26.52
2023-02-24T12:13:39.072Z,26.40
2023-02-24T12:16:44.371Z,31.83
2023-02-24T12:19:51.835Z,28.33
2023-02-24T12:23:02.317Z,33.60
2023-02-24T12:26:16.434Z,31.27
2023-02-24T12:29:33.089Z,34.67
2023-02-24T12:33:01.037Z,31.17
2023-02-24T12:36:23.431Z,36.13
2023-02-24T12:39:28.307Z,38.83
2023-02-24T12:42:33.342Z,35.83
2023-02-24T12:45:41.355Z,33.72
2023-02-24T12:49:02.079Z,40.22
2023-02-24T12:52:20.402Z,31.05
2023-02-24T12:55:36.689Z,31.88
2023-02-24T12:58:41.310Z,40.03
2023-02-24T13:01:54.339Z,34.42
2023-02-24T13:05:04.908Z,36.55
2023-02-24T13:08:14.428Z,31.20
2023-02-24T13:11:27.928Z,35.30
2023-02-24T13:14:34.171Z,34.75
2023-02-24T13:17:46.992Z,39.42
2023-02-24T13:20:49.047Z,34.83
2023-02-24T13:23:58.349Z,29.30
2023-02-24T13:27:07.376Z,30.60
2023-02-24T13:33:18.849Z,33.08
2023-02-24T13:36:24.112Z,31.15
2023-02-24T13:39:37.612Z,30.67
2023-02-24T13:42:39.522Z,32.83
2023-02-24T13:45:41.445Z,29.25
2023-02-24T13:49:00.516Z,30.20
2023-02-24T13:52:03.775Z,30.92
2023-02-24T13:55:43.739Z,31.73
2023-02-24T13:59:04.427Z,31.88
2023-02-24T14:05:23.609Z,29.40
2023-02-24T14:08:39.991Z,24.80
2023-02-24T14:11:42.258Z,25.98
2023-02-24T14:14:45.436Z,26.90
2023-02-24T14:17:56.533Z,24.65
2023-02-24T14:20:59.005Z,25.80
2023-02-24T14:27:26.028Z,22.27
2023-02-24T14:30:39.548Z,26.40
2023-02-24T14:33:44.150Z,21.40
2023-02-24T14:36:49.595Z,25.88
2023-02-24T14:39:55.007Z,24.52
2023-02-24T14:42:56.944Z,24.38
2023-02-24T14:46:03.947Z,23.42
2023-02-24T14:49:05.811Z,23.02
2023-02-24T14:52:20.847Z,25.00
2023-02-24T14:58:59.098Z,26.55
2023-02-24T15:02:04.830Z,22.67
2023-02-24T15:05:09.445Z,21.52
2023-02-24T15:08:33.685Z,22.20
2023-02-24T15:11:35.970Z,24.33
2023-02-24T15:14:38.728Z,23.17
2023-02-24T15:21:03.534Z,22.98
2023-02-24T15:24:25.275Z,23.95
2023-02-24T15:27:28.921Z,21.92
2023-02-24T15:30:36.824Z,22.73
2023-02-24T15:33:44.964Z,22.65
2023-02-24T15:36:48.052Z,20.75
2023-02-24T15:39:52.186Z,22.02
2023-02-24T15:43:11.099Z,22.70
2023-02-24T15:46:19.332Z,23.10
2023-02-24T15:49:21.570Z,23.45
2023-02-24T15:52:28.581Z,25.67
2023-02-24T15:55:30.702Z,23.98
2023-02-24T15:58:32.892Z,20.30
2023-02-24T16:01:34.854Z,21.40
2023-02-24T16:04:39.110Z,29.52
2023-02-24T16:07:46.244Z,23.35
2023-02-24T16:10:48.403Z,25.20
2023-02-24T16:13:57.413Z,23.73
2023-02-24T16:17:02.633Z,29.23
2023-02-24T16:20:06.178Z,21.85
2023-02-24T16:23:08.072Z,25.77
2023-02-24T16:26:19.218Z,25.48
2023-02-24T16:29:21.263Z,24.50
2023-02-24T16:32:30.185Z,22.55
2023-02-24T16:35:32.435Z,26.23
2023-02-24T16:38:34.491Z,20.67
2023-02-24T16:41:36.589Z,21.13
2023-02-24T16:44:38.829Z,17.90
2023-02-24T16:47:41.988Z,22.08
2023-02-24T16:50:45.573Z,18.23
2023-02-24T16:53:47.565Z,22.10
2023-02-24T16:56:49.648Z,17.48
2023-02-24T16:59:52.185Z,20.77
2023-02-24T17:06:03.115Z,21.80
2023-02-24T17:09:05.499Z,16.63
2023-02-24T17:12:07.733Z,22.38
2023-02-24T17:15:15.532Z,27.25
2023-02-24T17:18:18.265Z,18.77
2023-02-24T17:21:20.722Z,19.70
2023-02-24T17:24:23.181Z,21.08
2023-02-24T17:27:25.167Z,18.67
2023-02-24T17:30:32.667Z,23.23
2023-02-24T17:33:35.077Z,23.33
2023-02-24T17:36:37.083Z,23.88
2023-02-24T17:39:39.602Z,26.98
2023-02-24T17:42:42.779Z,20.33
2023-02-24T17:45:46.317Z,22.95
2023-02-24T17:48:48.282Z,21.83
2023-02-24T17:51:50.339Z,21.48
2023-02-24T17:54:52.307Z,18.10
2023-02-24T17:57:56.202Z,19.80
2023-02-24T18:00:59.911Z,21.08
2023-02-24T18:04:01.960Z,21.42
2023-02-24T18:07:11.718Z,21.27
2023-02-24T18:10:14.031Z,18.10
2023-02-24T18:13:19.661Z,18.38
2023-02-24T18:16:22.447Z,23.83
2023-02-24T18:19:25.127Z,20.38
2023-02-24T18:22:27.211Z,18.48
2023-02-24T18:25:29.123Z,21.45
2023-02-24T18:28:32.111Z,20.52
2023-02-24T18:31:34.403Z,19.92
2023-02-24T18:34:36.759Z,17.58
2023-02-24T18:37:38.753Z,20.40
2023-02-24T18:40:40.789Z,18.75
2023-02-24T18:43:43.269Z,19.77
2023-02-24T18:46:45.231Z,20.90
2023-02-24T18:49:47.172Z,23.10
2023-02-24T18:52:49.336Z,21.67
2023-02-24T18:56:05.164Z,21.35
2023-02-24T18:59:07.184Z,19.92
2023-02-24T19:02:10.580Z,23.00
2023-02-24T19:05:12.465Z,23.33
2023-02-24T19:08:16.704Z,18.58
2023-02-24T19:11:20.476Z,20.85
2023-02-24T19:14:22.466Z,20.17
2023-02-24T19:17:24.390Z,23.13
2023-02-24T19:20:26.291Z,22.20
2023-02-24T19:23:28.291Z,21.20
2023-02-24T19:26:30.180Z,20.20
2023-02-24T19:29:32.253Z,19.95
2023-02-24T19:35:42.545Z,20.00
2023-02-24T19:38:44.360Z,23.30
2023-02-24T19:41:53.201Z,20.95
2023-02-24T19:44:55.123Z,19.10
2023-02-24T19:47:57.113Z,22.55
2023-02-24T19:50:58.959Z,19.65
2023-02-24T19:54:02.240Z,21.83
2023-02-24T19:57:04.470Z,21.70
2023-02-24T20:00:08.481Z,21.05
2023-02-24T20:03:13.957Z,21.70
2023-02-24T20:06:21.896Z,19.27
2023-02-24T20:09:23.920Z,20.48
2023-02-24T20:12:26.108Z,18.05
2023-02-24T20:15:27.924Z,18.88
2023-02-24T20:18:29.931Z,19.23
2023-02-24T20:21:32.873Z,18.88
2023-02-24T20:24:34.946Z,20.50
2023-02-24T20:27:36.833Z,23.42
2023-02-24T20:30:38.955Z,20.23
2023-02-24T20:33:42.391Z,18.60
2023-02-24T20:36:44.444Z,18.95
2023-02-24T20:39:46.317Z,24.23
2023-02-24T20:42:48.189Z,19.67
2023-02-24T20:45:50.184Z,20.60
2023-02-24T20:48:55.452Z,22.90
2023-02-24T20:51:57.354Z,8.75
2023-02-24T20:55:01.749Z,8.02
2023-02-24T20:58:03.701Z,5.75
2023-02-24T21:01:05.914Z,4.75
2023-02-24T21:04:08.067Z,7.80
2023-02-24T21:07:09.913Z,4.85
2023-02-24T21:10:12.433Z,5.28
2023-02-24T21:19:24.324Z,5.57
2023-02-24T21:22:26.244Z,3.92
2023-02-24T21:25:28.210Z,4.82
2023-02-24T21:28:30.143Z,4.72
2023-02-24T21:31:32.334Z,4.57
2023-02-24T21:34:35.094Z,3.88
2023-02-24T21:40:38.832Z,5.85
2023-02-24T21:43:42.101Z,4.40
2023-02-24T21:46:44.184Z,4.35
2023-02-24T21:49:46.056Z,4.20
2023-02-24T21:52:48.703Z,4.90
2023-02-24T21:55:50.540Z,4.35
2023-02-24T21:59:01.354Z,3.40
2023-02-24T22:02:03.498Z,5.10
2023-02-24T22:05:05.920Z,5.00
2023-02-24T22:08:10.018Z,3.95
2023-02-24T22:11:17.424Z,4.55
2023-02-24T22:14:19.470Z,4.25
2023-02-24T22:17:21.379Z,4.57
2023-02-24T22:20:23.482Z,4.45
2023-02-24T22:23:25.389Z,5.47
2023-02-24T22:26:29.036Z,5.53
2023-02-24T22:29:30.947Z,7.45
2023-02-24T22:32:32.848Z,7.28
2023-02-24T22:35:34.996Z,6.00
2023-02-24T22:38:38.062Z,6.35
2023-02-24T22:41:40.301Z,6.68
2023-02-24T22:44:42.233Z,6.72
2023-02-24T22:47:44.126Z,5.00
2023-02-24T22:50:46.205Z,4.63
2023-02-24T22:53:49.797Z,8.52
2023-02-24T22:56:55.991Z,5.15
2023-02-24T23:00:00.398Z,5.47
2023-02-24T23:03:08.318Z,7.93
2023-02-24T23:06:13.206Z,7.72
2023-02-24T23:09:15.096Z,4.80
2023-02-24T23:12:17.062Z,5.40
2023-02-24T23:15:18.946Z,5.25
2023-02-24T23:18:20.859Z,7.13
2023-02-24T23:21:25.908Z,6.20
2023-02-24T23:24:27.931Z,5.95
2023-02-24T23:27:29.805Z,6.35
2023-02-24T23:30:31.749Z,12.30
2023-02-24T23:33:33.886Z,8.93
2023-02-24T23:36:41.357Z,6.38
2023-02-24T23:39:43.311Z,6.13
2023-02-24T23:42:47.405Z,6.88
2023-02-24T23:45:51.642Z,6.60
2023-02-24T23:48:54.597Z,7.53
2023-02-24T23:51:56.598Z,7.97
2023-02-24T23:54:58.502Z,6.55
2023-02-24T23:58:01.079Z,6.00
